Time;durP1;ratioP1;P1;durP2;ratioP2;P2;SDS_P1;SDS_P2;PMS_P1;PMS_P2;Temp;Humidity;BMP_temperature;BMP_pressure;BME280_temperature;BME280_humidity;BME280_pressure;Samples;Min_cycle;Max_cycle;Signal;HPM_P1;HPM_P2
2021/03/24 00:02:17;;;;;;;16.33;12.90;;;6.20;99.90;;;;;;5008573;28;20876;-62
2021/03/24 00:04:45;;;;;;;18.50;14.13;;;6.10;99.90;;;;;;5008825;28;20891;-61
2021/03/24 00:07:11;;;;;;;20.47;14.43;;;6.20;99.90;;;;;;5009118;28;20564;-61
2021/03/24 00:09:37;;;;;;;19.13;14.80;;;6.10;99.90;;;;;;5009601;28;20229;-61
2021/03/24 00:12:05;;;;;;;16.33;13.43;;;6.20;99.90;;;;;;5009716;28;20222;-61
2021/03/24 00:14:32;;;;;;;18.17;13.20;;;6.10;99.90;;;;;;5008966;28;20506;-62
2021/03/24 00:16:58;;;;;;;17.90;13.47;;;6.10;99.90;;;;;;5008933;28;20528;-62
2021/03/24 00:19:24;;;;;;;21.57;14.10;;;6.00;99.90;;;;;;5008857;28;20506;-60
2021/03/24 00:21:51;;;;;;;18.23;14.67;;;6.00;99.90;;;;;;5008846;28;20361;-61
2021/03/24 00:24:18;;;;;;;15.87;12.77;;;6.10;99.90;;;;;;5009441;28;20202;-62
2021/03/24 00:26:44;;;;;;;18.77;14.40;;;6.10;99.90;;;;;;5008502;28;20536;-60
2021/03/24 00:29:10;;;;;;;18.63;14.63;;;6.10;99.90;;;;;;5008530;28;20950;-62
2021/03/24 00:31:36;;;;;;;19.67;13.63;;;6.50;99.90;;;;;;5008232;28;20714;-62
2021/03/24 00:34:03;;;;;;;17.00;13.97;;;6.70;99.90;;;;;;5009202;28;20209;-62
2021/03/24 00:36:29;;;;;;;16.10;12.87;;;7.00;99.90;;;;;;4989174;28;20663;-62
2021/03/24 00:38:56;;;;;;;17.00;13.60;;;6.20;99.90;;;;;;4988845;28;20505;-61
2021/03/24 00:41:23;;;;;;;19.13;14.30;;;6.20;99.90;;;;;;5003434;28;20291;-62
2021/03/24 00:43:49;;;;;;;16.50;13.57;;;6.20;99.90;;;;;;5009305;28;20693;-62
2021/03/24 00:46:15;;;;;;;17.83;13.80;;;6.30;99.90;;;;;;5008130;28;20226;-62
2021/03/24 00:48:42;;;;;;;19.07;13.37;;;6.10;99.90;;;;;;5008180;28;20389;-62
2021/03/24 00:51:09;;;;;;;16.37;13.33;;;6.10;99.90;;;;;;4988857;28;20838;-61
2021/03/24 00:53:35;;;;;;;17.10;13.43;;;6.10;99.90;;;;;;5008443;28;20253;-62
2021/03/24 00:56:03;;;;;;;18.57;14.03;;;6.10;99.90;;;;;;5008273;28;20218;-61
2021/03/24 00:58:29;;;;;;;20.03;13.83;;;6.10;99.90;;;;;;5008012;28;20721;-61
2021/03/24 01:00:56;;;;;;;18.67;12.83;;;6.20;99.90;;;;;;5008067;28;20221;-61
2021/03/24 01:03:22;;;;;;;18.50;14.00;;;6.00;99.90;;;;;;4989581;28;20232;-60
2021/03/24 01:05:50;;;;;;;18.43;14.07;;;6.10;99.90;;;;;;5008113;28;20218;-61
2021/03/24 01:08:19;;;;;;;18.77;13.97;;;6.20;99.90;;;;;;5007681;28;20558;-61
2021/03/24 01:10:45;;;;;;;16.43;13.43;;;6.20;99.90;;;;;;5007812;28;20440;-61
2021/03/24 01:13:14;;;;;;;16.57;12.90;;;6.10;99.90;;;;;;5008182;28;20203;-60
2021/03/24 01:15:40;;;;;;;16.47;12.27;;;6.20;99.90;;;;;;5007355;28;20308;-60
2021/03/24 01:18:07;;;;;;;19.33;14.20;;;6.10;99.90;;;;;;5008177;28;20591;-61
2021/03/24 01:20:35;;;;;;;18.90;13.33;;;6.10;99.90;;;;;;5007765;28;20223;-60
2021/03/24 01:23:02;;;;;;;19.47;14.00;;;6.10;99.90;;;;;;5008475;28;20633;-61
2021/03/24 01:25:29;;;;;;;17.73;14.17;;;6.20;99.90;;;;;;5007813;28;20245;-61
2021/03/24 01:27:56;;;;;;;17.40;13.57;;;6.20;99.90;;;;;;5007964;28;20332;-59
2021/03/24 01:30:26;;;;;;;18.50;13.37;;;6.20;99.90;;;;;;5007281;28;20682;-62
2021/03/24 01:32:52;;;;;;;17.60;13.57;;;6.20;99.90;;;;;;5007607;28;20253;-61
2021/03/24 01:35:20;;;;;;;15.87;12.47;;;6.10;99.90;;;;;;5007777;28;20222;-60
2021/03/24 01:37:47;;;;;;;17.13;13.50;;;6.20;99.90;;;;;;5007396;28;20366;-61
2021/03/24 01:40:24;;;;;;;19.10;14.40;;;6.00;99.90;;;;;;5007712;28;20206;-61
2021/03/24 01:42:51;;;;;;;16.70;13.13;;;6.10;99.90;;;;;;5007586;28;20312;-61
2021/03/24 01:46:06;;;;;;;18.57;14.13;;;7.10;99.90;;;;;;5007633;28;20553;-61
2021/03/24 01:48:34;;;;;;;18.47;13.60;;;6.10;99.90;;;;;;4988619;28;20951;-61
2021/03/24 01:51:01;;;;;;;18.43;14.47;;;6.10;99.90;;;;;;5006791;28;20708;-61
2021/03/24 01:53:28;;;;;;;18.93;13.80;;;6.10;99.90;;;;;;4989225;28;20218;-60
2021/03/24 01:55:54;;;;;;;18.13;14.40;;;7.20;99.90;;;;;;5007272;28;20231;-60
2021/03/24 01:58:21;;;;;;;19.70;13.60;;;6.50;99.90;;;;;;5007152;28;20515;-61
2021/03/24 02:00:50;;;;;;;17.73;13.03;;;6.00;99.90;;;;;;5007634;28;20214;-61
2021/03/24 02:03:18;;;;;;;20.00;13.70;;;6.10;99.90;;;;;;5007111;28;20495;-59
2021/03/24 02:05:46;;;;;;;18.97;14.40;;;6.00;99.90;;;;;;5007769;28;20242;-62
2021/03/24 02:08:18;;;;;;;18.87;13.97;;;6.10;99.90;;;;;;5007579;28;20398;-61
2021/03/24 02:10:49;;;;;;;17.43;14.27;;;6.10;99.90;;;;;;5006864;28;20818;-61
2021/03/24 02:13:21;;;;;;;18.53;14.03;;;6.00;99.90;;;;;;5007362;28;20762;-61
2021/03/24 02:15:52;;;;;;;19.30;14.47;;;6.00;99.90;;;;;;5006671;28;20284;-60
2021/03/24 02:18:21;;;;;;;18.37;14.00;;;6.00;99.90;;;;;;5008101;28;20334;-61
2021/03/24 02:20:52;;;;;;;21.50;14.10;;;5.90;99.90;;;;;;5007335;28;20222;-61
2021/03/24 02:23:27;;;;;;;19.57;14.97;;;5.90;99.90;;;;;;5010163;28;20444;-59
2021/03/24 02:25:57;;;;;;;20.30;14.07;;;5.80;99.90;;;;;;5009985;28;20225;-61
2021/03/24 02:28:26;;;;;;;20.63;14.27;;;5.90;99.90;;;;;;5010841;28;21044;-60
2021/03/24 02:30:53;;;;;;;16.43;13.47;;;5.80;99.90;;;;;;5009917;28;20238;-61
2021/03/24 02:33:23;;;;;;;20.57;15.17;;;5.90;99.90;;;;;;5010494;28;20552;-61
2021/03/24 02:35:52;;;;;;;19.70;14.50;;;5.90;99.90;;;;;;5010303;28;20625;-61
2021/03/24 02:38:21;;;;;;;20.73;14.93;;;5.80;99.90;;;;;;5007115;28;20777;-61
2021/03/24 02:40:49;;;;;;;19.33;14.80;;;6.40;99.90;;;;;;5000093;28;20795;-61
2021/03/24 02:43:20;;;;;;;21.70;15.73;;;5.70;99.90;;;;;;5010654;28;20225;-60
2021/03/24 02:45:49;;;;;;;18.97;14.47;;;5.80;99.90;;;;;;5009794;28;20222;-61
2021/03/24 02:48:19;;;;;;;17.83;14.37;;;5.90;99.90;;;;;;5010927;28;20500;-61
2021/03/24 02:50:46;;;;;;;20.17;15.17;;;5.70;99.90;;;;;;5009320;28;20339;-62
2021/03/24 02:53:14;;;;;;;20.83;15.03;;;6.30;99.90;;;;;;5009576;28;20214;-61
2021/03/24 02:55:43;;;;;;;20.47;14.60;;;5.90;99.90;;;;;;5009965;28;20573;-60
2021/03/24 02:58:10;;;;;;;22.67;15.53;;;5.90;99.90;;;;;;5009634;28;20356;-61
2021/03/24 03:00:37;;;;;;;22.80;15.63;;;5.90;99.90;;;;;;5009561;28;20561;-61
2021/03/24 03:03:10;;;;;;;22.03;15.93;;;5.90;99.90;;;;;;5009800;28;20615;-61
2021/03/24 03:05:39;;;;;;;20.40;15.83;;;5.80;99.90;;;;;;5009296;28;20218;-61
2021/03/24 03:08:10;;;;;;;23.80;16.37;;;5.80;99.90;;;;;;5009393;28;20253;-60
2021/03/24 03:10:45;;;;;;;23.07;16.40;;;5.80;99.90;;;;;;5009272;28;20230;-61
2021/03/24 03:13:17;;;;;;;22.57;16.77;;;5.90;99.90;;;;;;5010127;28;20681;-61
2021/03/24 03:15:52;;;;;;;20.37;14.87;;;5.90;99.90;;;;;;5009382;28;20476;-61
2021/03/24 03:18:25;;;;;;;20.80;16.33;;;5.80;99.90;;;;;;5009588;28;20685;-62
2021/03/24 03:20:55;;;;;;;23.37;17.33;;;5.90;99.90;;;;;;5009365;28;20530;-61
2021/03/24 03:23:24;;;;;;;24.23;17.50;;;5.90;99.90;;;;;;5009583;28;20211;-61
2021/03/24 03:25:55;;;;;;;19.53;14.63;;;5.80;99.90;;;;;;5008933;28;20471;-61
2021/03/24 03:28:22;;;;;;;18.53;13.67;;;5.80;99.90;;;;;;5009763;28;20321;-61
2021/03/24 03:30:52;;;;;;;22.30;16.97;;;6.00;99.90;;;;;;5008920;28;20234;-61
2021/03/24 03:33:27;;;;;;;26.60;17.97;;;6.00;99.90;;;;;;5008712;28;20296;-61
2021/03/24 03:35:54;;;;;;;25.03;17.13;;;6.10;99.90;;;;;;4990459;28;20253;-61
2021/03/24 03:38:24;;;;;;;22.33;16.63;;;6.00;99.90;;;;;;5009321;28;20573;-59
2021/03/24 03:40:52;;;;;;;23.47;16.23;;;6.00;99.90;;;;;;5008964;28;20576;-61
2021/03/24 03:43:21;;;;;;;24.73;15.90;;;5.90;99.90;;;;;;5008922;28;20245;-61
2021/03/24 03:45:49;;;;;;;20.90;15.27;;;5.90;99.90;;;;;;5009554;28;20218;-61
2021/03/24 03:48:18;;;;;;;24.10;15.80;;;6.60;99.90;;;;;;5009318;28;20239;-62
2021/03/24 03:50:47;;;;;;;26.17;17.30;;;6.10;99.90;;;;;;5009317;28;20353;-61
2021/03/24 03:53:22;;;;;;;22.23;16.87;;;5.90;99.90;;;;;;5008890;28;20563;-61
2021/03/24 03:55:52;;;;;;;22.20;16.07;;;6.10;99.90;;;;;;5009535;28;20983;-61
2021/03/24 03:58:29;;;;;;;17.73;12.87;;;6.00;99.90;;;;;;5008630;28;20637;-61
2021/03/24 04:01:04;;;;;;;23.27;16.37;;;6.00;99.90;;;;;;5008656;28;20582;-61
2021/03/24 04:03:35;;;;;;;19.97;13.87;;;6.00;99.90;;;;;;5009425;28;20520;-61
2021/03/24 04:06:07;;;;;;;20.03;15.67;;;6.00;99.90;;;;;;5009109;28;20736;-61
2021/03/24 04:08:35;;;;;;;21.87;14.93;;;5.90;99.90;;;;;;5009963;28;20206;-61
2021/03/24 04:11:06;;;;;;;23.93;14.43;;;6.10;99.90;;;;;;5014853;28;20335;-61
2021/03/24 04:13:35;;;;;;;23.17;15.90;;;7.00;99.90;;;;;;4991674;28;20214;-61
2021/03/24 04:16:03;;;;;;;24.27;15.67;;;6.10;99.90;;;;;;4990527;28;20257;-61
2021/03/24 04:18:35;;;;;;;20.07;14.80;;;6.10;99.90;;;;;;5009488;28;20595;-60
2021/03/24 04:21:03;;;;;;;20.67;15.53;;;6.70;99.90;;;;;;5008886;28;20783;-59
2021/03/24 04:23:34;;;;;;;22.77;16.23;;;4.90;99.90;;;;;;5008761;28;20588;-61
2021/03/24 04:26:05;;;;;;;24.37;17.30;;;6.80;99.90;;;;;;5008647;28;20233;-62
2021/03/24 04:28:36;;;;;;;25.23;17.00;;;6.00;99.90;;;;;;5008358;28;20543;-59
2021/03/24 04:31:06;;;;;;;25.07;17.17;;;6.10;99.90;;;;;;5007901;28;20272;-60
2021/03/24 04:33:33;;;;;;;22.77;16.63;;;6.10;99.90;;;;;;5008828;28;20685;-61
2021/03/24 04:36:14;;;;;;;21.23;15.77;;;6.20;99.90;;;;;;5008230;28;20600;-61
2021/03/24 04:38:44;;;;;;;22.53;17.37;;;6.10;99.90;;;;;;5007159;28;20214;-60
2021/03/24 04:41:15;;;;;;;25.90;18.67;;;6.10;99.90;;;;;;5008407;28;20229;-61
2021/03/24 04:43:45;;;;;;;41.70;26.20;;;6.00;99.90;;;;;;5008202;28;20425;-61
2021/03/24 04:46:19;;;;;;;27.77;19.83;;;6.00;99.90;;;;;;5008202;28;20417;-61
2021/03/24 04:48:48;;;;;;;25.77;18.43;;;6.10;99.90;;;;;;5008681;28;20501;-60
2021/03/24 04:51:21;;;;;;;28.57;18.47;;;6.00;99.90;;;;;;5007920;28;20492;-61
2021/03/24 04:53:52;;;;;;;23.73;17.20;;;6.00;99.90;;;;;;5008105;28;20245;-61
2021/03/24 04:56:20;;;;;;;22.97;16.60;;;5.80;99.90;;;;;;4989775;28;20230;-61
2021/03/24 04:58:51;;;;;;;27.57;18.37;;;5.20;99.90;;;;;;4996011;28;20257;-61
2021/03/24 05:01:23;;;;;;;26.67;16.43;;;5.80;99.90;;;;;;5006979;28;20345;-61
2021/03/24 05:03:55;;;;;;;26.40;17.90;;;5.90;99.90;;;;;;4988133;28;20660;-61
2021/03/24 05:06:27;;;;;;;26.90;18.93;;;6.50;99.90;;;;;;5003095;28;20470;-61
2021/03/24 05:08:53;;;;;;;31.73;20.53;;;5.90;99.90;;;;;;5007952;28;20210;-61
2021/03/24 05:11:25;;;;;;;33.50;22.97;;;6.00;99.90;;;;;;5008071;28;20360;-61
2021/03/24 05:13:58;;;;;;;28.33;19.27;;;5.90;99.90;;;;;;5007710;28;20378;-61
2021/03/24 05:16:30;;;;;;;29.67;19.70;;;6.00;99.90;;;;;;5008011;28;20344;-61
2021/03/24 05:18:58;;;;;;;26.57;18.47;;;5.80;99.90;;;;;;5008522;28;20491;-61
2021/03/24 05:21:50;;;;;;;28.83;20.20;;;5.90;99.90;;;;;;5007747;28;20641;-61
2021/03/24 05:24:20;;;;;;;28.90;20.50;;;6.00;99.90;;;;;;5008275;28;20317;-62
2021/03/24 05:26:51;;;;;;;33.50;21.63;;;6.00;99.90;;;;;;5007633;28;20228;-61
2021/03/24 05:29:23;;;;;;;32.40;20.97;;;6.00;99.90;;;;;;5007153;28;20324;-61
2021/03/24 05:31:54;;;;;;;26.17;19.63;;;5.90;99.90;;;;;;5007775;28;20222;-61
2021/03/24 05:34:25;;;;;;;29.87;19.07;;;5.90;99.90;;;;;;5007038;28;20225;-60
2021/03/24 05:36:54;;;;;;;28.00;18.43;;;6.00;99.90;;;;;;5006971;28;20765;-61
2021/03/24 05:39:25;;;;;;;27.63;19.53;;;6.00;99.90;;;;;;5006974;28;20206;-61
2021/03/24 05:41:59;;;;;;;25.77;19.33;;;6.00;99.90;;;;;;5007324;28;20590;-61
2021/03/24 05:44:53;;;;;;;31.87;19.53;;;5.90;99.90;;;;;;5004054;28;20572;-60
2021/03/24 05:47:31;;;;;;;26.80;18.87;;;5.90;99.90;;;;;;5004122;28;20491;-61
2021/03/24 05:50:04;;;;;;;28.97;18.77;;;6.00;99.90;;;;;;4999315;28;20232;-60
2021/03/24 05:52:46;;;;;;;28.50;19.90;;;6.00;99.90;;;;;;5004381;28;20308;-59
2021/03/24 05:55:25;;;;;;;28.70;19.03;;;6.20;99.90;;;;;;5004753;28;20512;-61
2021/03/24 05:58:06;;;;;;;29.80;19.57;;;5.90;99.90;;;;;;5006924;28;20525;-61
2021/03/24 06:00:36;;;;;;;29.53;19.27;;;6.20;99.90;;;;;;5007927;28;20316;-61
2021/03/24 06:03:11;;;;;;;26.07;19.57;;;6.10;99.90;;;;;;5007454;28;20630;-60
2021/03/24 06:05:47;;;;;;;30.80;19.57;;;6.50;99.90;;;;;;5007639;28;20869;-60
2021/03/24 06:08:57;;;;;;;31.87;20.87;;;6.20;99.90;;;;;;5008189;28;20648;-60
2021/03/24 06:11:42;;;;;;;30.37;20.13;;;6.10;99.90;;;;;;4949376;28;20472;-60
2021/03/24 06:14:35;;;;;;;30.43;20.40;;;6.10;99.90;;;;;;5008004;28;20218;-60
2021/03/24 06:17:40;;;;;;;29.97;20.10;;;6.20;99.90;;;;;;5007640;28;20709;-61
2021/03/24 06:20:16;;;;;;;31.07;20.93;;;6.20;99.90;;;;;;5007568;28;20245;-61
2021/03/24 06:22:53;;;;;;;34.73;21.50;;;6.30;99.90;;;;;;5006509;28;20511;-61
2021/03/24 06:25:33;;;;;;;31.03;20.67;;;6.30;99.90;;;;;;5007431;28;20222;-61
2021/03/24 06:28:18;;;;;;;33.33;22.00;;;6.40;99.90;;;;;;5007552;28;20218;-61
2021/03/24 06:31:00;;;;;;;33.80;22.53;;;6.40;99.90;;;;;;5007297;28;20481;-61
2021/03/24 06:33:54;;;;;;;34.33;20.50;;;6.60;99.90;;;;;;5007443;28;20230;-61
2021/03/24 06:36:33;;;;;;;34.87;23.37;;;6.50;99.90;;;;;;5007242;28;20551;-61
2021/03/24 06:39:26;;;;;;;35.27;23.77;;;6.60;99.90;;;;;;5006201;28;20225;-61
2021/03/24 06:42:06;;;;;;;32.50;21.50;;;6.60;99.90;;;;;;4988777;28;20253;-61
2021/03/24 06:45:02;;;;;;;34.93;22.17;;;6.70;99.90;;;;;;5006972;28;20454;-62
2021/03/24 06:47:38;;;;;;;35.37;22.63;;;6.80;99.90;;;;;;5006828;28;20489;-60
2021/03/24 06:50:26;;;;;;;38.90;22.77;;;6.80;99.90;;;;;;5007387;28;20226;-61
2021/03/24 06:53:26;;;;;;;33.97;23.63;;;6.90;99.90;;;;;;5007174;28;20442;-59
2021/03/24 06:56:33;;;;;;;38.97;24.27;;;6.90;99.90;;;;;;5006198;28;20262;-60
2021/03/24 06:59:35;;;;;;;36.70;22.63;;;7.00;99.90;;;;;;4976241;28;20253;-60
2021/03/24 07:02:30;;;;;;;43.13;23.27;;;7.30;99.90;;;;;;5003690;28;20465;-60
2021/03/24 07:05:31;;;;;;;33.47;21.97;;;7.20;99.90;;;;;;5006620;28;20729;-60
2021/03/24 07:08:24;;;;;;;39.47;24.57;;;7.20;99.90;;;;;;5002584;28;20618;-61
2021/03/24 07:11:06;;;;;;;39.50;25.00;;;7.30;99.90;;;;;;5006556;28;20531;-61
2021/03/24 07:14:02;;;;;;;39.73;27.00;;;8.80;99.90;;;;;;5007242;28;20835;-61
2021/03/24 07:16:50;;;;;;;39.93;24.63;;;7.10;99.90;;;;;;5006503;28;20226;-62
2021/03/24 07:19:37;;;;;;;42.60;26.67;;;7.50;99.90;;;;;;5006703;28;20219;-60
2021/03/24 07:22:18;;;;;;;39.20;24.37;;;8.60;99.90;;;;;;5006583;28;20703;-61
2021/03/24 07:25:18;;;;;;;36.03;24.23;;;7.70;99.90;;;;;;5006466;28;20359;-61
2021/03/24 07:28:13;;;;;;;39.57;24.67;;;7.70;99.90;;;;;;5006593;28;20616;-61
2021/03/24 07:30:54;;;;;;;42.23;25.90;;;7.70;99.90;;;;;;5006409;28;20623;-60
2021/03/24 07:33:30;;;;;;;40.83;26.30;;;7.80;99.90;;;;;;5006199;28;20791;-61
2021/03/24 07:36:16;;;;;;;38.50;24.17;;;7.70;99.90;;;;;;5006468;28;20344;-60
2021/03/24 07:39:08;;;;;;;37.63;25.00;;;7.70;99.90;;;;;;5006598;28;20393;-59
2021/03/24 07:41:54;;;;;;;42.53;26.67;;;8.50;99.90;;;;;;5006305;28;20521;-61
2021/03/24 07:44:42;;;;;;;39.13;26.07;;;8.30;99.90;;;;;;5006991;28;20249;-61
2021/03/24 07:47:34;;;;;;;41.07;26.43;;;7.90;99.90;;;;;;5006151;28;20494;-62
2021/03/24 07:50:16;;;;;;;40.70;24.20;;;7.90;99.90;;;;;;5001053;28;20514;-60
2021/03/24 07:52:58;;;;;;;37.80;24.43;;;8.20;99.90;;;;;;4996178;28;20246;-61
2021/03/24 07:55:33;;;;;;;38.73;25.87;;;9.40;99.90;;;;;;4998780;28;20464;-60
2021/03/24 07:58:18;;;;;;;39.27;26.47;;;8.10;99.90;;;;;;5004977;28;20422;-62
2021/03/24 08:00:51;;;;;;;43.30;27.30;;;8.10;99.90;;;;;;5005749;28;20462;-60
2021/03/24 08:03:22;;;;;;;40.30;25.90;;;8.40;99.90;;;;;;4986673;28;20952;-61
2021/03/24 08:06:11;;;;;;;38.93;26.33;;;8.40;99.90;;;;;;5006388;28;20511;-62
2021/03/24 08:09:05;;;;;;;43.40;27.17;;;8.40;99.90;;;;;;5006074;28;20756;-60
2021/03/24 08:11:36;;;;;;;43.70;28.87;;;8.60;99.90;;;;;;5005782;28;20238;-60
2021/03/24 08:14:18;;;;;;;39.67;26.93;;;8.60;99.90;;;;;;5005759;28;20450;-61
2021/03/24 08:16:56;;;;;;;39.70;27.10;;;8.80;99.90;;;;;;5006454;28;20594;-61
2021/03/24 08:19:44;;;;;;;40.03;27.23;;;9.00;99.90;;;;;;5005669;28;20316;-61
2021/03/24 08:22:25;;;;;;;43.00;27.37;;;8.80;99.90;;;;;;5008441;28;20446;-60
2021/03/24 08:25:02;;;;;;;43.93;28.83;;;9.10;99.90;;;;;;5009198;28;20499;-61
2021/03/24 08:27:33;;;;;;;42.03;29.63;;;9.20;99.90;;;;;;5004591;28;20229;-60
2021/03/24 08:30:12;;;;;;;45.83;28.97;;;9.20;99.90;;;;;;5005570;28;20222;-61
2021/03/24 08:33:18;;;;;;;44.70;30.77;;;9.20;99.90;;;;;;5004594;28;20261;-61
2021/03/24 08:36:07;;;;;;;46.47;30.00;;;9.20;99.90;;;;;;4986426;28;20300;-61
2021/03/24 08:38:55;;;;;;;45.30;29.93;;;9.40;99.90;;;;;;5004987;28;20329;-61
2021/03/24 08:41:57;;;;;;;42.97;30.23;;;9.50;99.90;;;;;;5005368;28;20927;-61
2021/03/24 08:44:29;;;;;;;41.97;28.63;;;9.50;99.90;;;;;;5005267;28;20743;-60
2021/03/24 08:46:59;;;;;;;44.07;29.27;;;9.70;99.90;;;;;;5004759;28;20570;-60
2021/03/24 08:49:30;;;;;;;47.50;30.40;;;9.60;99.90;;;;;;5004813;28;20664;-61
2021/03/24 08:52:04;;;;;;;51.10;30.73;;;9.80;99.90;;;;;;5004800;28;20229;-61
2021/03/24 08:54:58;;;;;;;45.67;30.80;;;9.60;99.90;;;;;;5005085;28;20226;-61
2021/03/24 08:57:45;;;;;;;48.97;30.93;;;9.60;99.90;;;;;;5004434;28;20910;-60
2021/03/24 09:00:28;;;;;;;40.73;29.83;;;9.80;99.90;;;;;;5004811;28;20889;-60
2021/03/24 09:03:04;;;;;;;47.43;32.27;;;10.40;99.90;;;;;;5004820;28;20506;-61
2021/03/24 09:05:34;;;;;;;44.30;29.80;;;9.80;99.90;;;;;;5005311;28;20214;-60
2021/03/24 09:08:29;;;;;;;44.57;31.47;;;9.90;99.90;;;;;;5004856;28;20229;-61
2021/03/24 09:11:10;;;;;;;46.90;33.17;;;10.00;99.90;;;;;;5004685;28;20258;-61
2021/03/24 09:13:45;;;;;;;48.27;33.33;;;10.90;99.90;;;;;;5005136;28;20755;-61
2021/03/24 09:16:45;;;;;;;49.17;33.27;;;10.10;99.90;;;;;;4998201;28;20424;-61
2021/03/24 09:19:30;;;;;;;47.83;33.60;;;10.30;99.90;;;;;;4999343;28;20776;-61
2021/03/24 09:22:05;;;;;;;49.17;32.97;;;10.30;99.90;;;;;;5004471;28;20886;-61
2021/03/24 09:25:00;;;;;;;46.87;31.87;;;10.30;99.90;;;;;;5004404;28;20224;-61
2021/03/24 09:27:58;;;;;;;51.87;33.67;;;10.60;99.90;;;;;;5004176;28;20351;-61
2021/03/24 09:30:55;;;;;;;46.17;30.43;;;10.50;99.90;;;;;;5003181;28;21063;-61
2021/03/24 09:33:47;;;;;;;48.33;33.20;;;10.60;99.90;;;;;;5003853;28;20998;-60
2021/03/24 09:36:40;;;;;;;43.53;32.30;;;10.50;99.90;;;;;;5001754;28;20260;-61
2021/03/24 09:39:17;;;;;;;48.10;33.83;;;11.00;99.90;;;;;;5001631;28;20467;-61
2021/03/24 09:41:51;;;;;;;49.03;33.77;;;11.10;99.90;;;;;;5004227;28;20629;-60
2021/03/24 09:44:25;;;;;;;49.77;34.70;;;11.30;99.30;;;;;;5004248;28;20527;-61
2021/03/24 09:46:55;;;;;;;47.33;33.60;;;12.70;99.70;;;;;;5004366;28;20231;-61
2021/03/24 09:49:26;;;;;;;46.20;33.57;;;13.00;98.30;;;;;;5004492;28;20583;-61
2021/03/24 09:52:16;;;;;;;48.93;35.00;;;12.20;97.40;;;;;;5004237;28;20555;-61
2021/03/24 09:55:06;;;;;;;45.23;32.83;;;12.40;96.40;;;;;;5004324;28;20410;-60
2021/03/24 09:57:47;;;;;;;51.13;34.03;;;12.70;95.00;;;;;;5003861;28;20762;-60
2021/03/24 10:00:18;;;;;;;44.03;33.37;;;12.90;93.10;;;;;;5004903;28;20469;-61
2021/03/24 10:02:50;;;;;;;46.50;33.63;;;13.20;92.50;;;;;;5003273;28;20662;-61
2021/03/24 10:05:28;;;;;;;44.70;34.17;;;13.40;91.70;;;;;;5004025;28;20214;-61
2021/03/24 10:08:00;;;;;;;49.70;33.97;;;13.60;91.20;;;;;;5003907;28;20488;-61
2021/03/24 10:10:30;;;;;;;47.77;33.50;;;13.70;88.80;;;;;;5003983;28;20979;-61
2021/03/24 10:13:02;;;;;;;46.27;33.43;;;13.80;88.10;;;;;;5003729;28;20713;-61
2021/03/24 10:15:37;;;;;;;42.40;32.87;;;14.90;85.80;;;;;;5003161;28;20321;-61
2021/03/24 10:18:10;;;;;;;44.53;33.77;;;13.80;82.70;;;;;;5004846;28;20233;-61
2021/03/24 10:20:40;;;;;;;45.50;34.40;;;13.70;81.30;;;;;;5004070;28;20233;-61
2021/03/24 10:23:13;;;;;;;46.60;35.20;;;13.50;81.60;;;;;;5004121;28;20246;-61
2021/03/24 10:25:43;;;;;;;43.80;34.80;;;13.70;83.20;;;;;;5003553;28;20333;-61
2021/03/24 10:28:15;;;;;;;46.90;34.33;;;13.80;82.90;;;;;;5004215;28;20642;-61
2021/03/24 10:30:43;;;;;;;43.73;35.43;;;13.90;78.50;;;;;;5003875;28;20470;-62
2021/03/24 10:33:25;;;;;;;48.33;35.40;;;13.80;79.60;;;;;;5004328;28;20780;-61
2021/03/24 10:36:02;;;;;;;47.00;35.40;;;13.80;79.40;;;;;;4996061;28;20278;-61
2021/03/24 10:38:46;;;;;;;47.30;34.33;;;13.80;77.30;;;;;;5003615;28;20500;-61
2021/03/24 10:41:24;;;;;;;48.70;33.90;;;13.50;77.60;;;;;;5002721;28;20286;-59
2021/03/24 10:43:56;;;;;;;47.03;34.73;;;13.50;77.40;;;;;;5007157;28;20214;-60
2021/03/24 10:46:29;;;;;;;43.83;34.17;;;13.60;75.60;;;;;;5007076;28;20600;-63
2021/03/24 10:49:00;;;;;;;52.47;38.13;;;13.70;73.20;;;;;;5007291;28;20804;-61
2021/03/24 10:51:41;;;;;;;46.00;34.00;;;13.80;72.80;;;;;;5006557;28;20875;-62
2021/03/24 10:54:19;;;;;;;48.77;36.97;;;13.90;71.50;;;;;;5007325;28;20226;-62
2021/03/24 10:57:00;;;;;;;50.33;37.83;;;13.90;68.30;;;;;;5007075;28;20230;-62
2021/03/24 10:59:34;;;;;;;48.57;34.07;;;14.10;68.50;;;;;;5007035;28;20362;-62
2021/03/24 11:02:16;;;;;;;45.80;36.57;;;14.00;67.30;;;;;;5006955;28;20640;-62
2021/03/24 11:04:50;;;;;;;46.53;36.30;;;14.10;66.90;;;;;;5006529;28;20616;-61
2021/03/24 11:07:23;;;;;;;51.03;37.00;;;13.90;67.20;;;;;;5006610;28;20316;-62
2021/03/24 11:09:55;;;;;;;48.33;35.97;;;13.90;68.50;;;;;;4999356;28;20250;-62
2021/03/24 11:12:25;;;;;;;47.90;36.43;;;13.80;68.20;;;;;;5006308;28;20663;-61
2021/03/24 11:15:07;;;;;;;50.73;37.43;;;15.00;68.50;;;;;;5006119;28;20637;-61
2021/03/24 11:17:38;;;;;;;44.80;35.17;;;13.70;68.40;;;;;;5006698;28;20322;-62
2021/03/24 11:20:10;;;;;;;48.67;37.17;;;13.70;70.00;;;;;;5006792;28;20244;-62
2021/03/24 11:22:52;;;;;;;46.70;35.30;;;13.90;69.90;;;;;;5006439;28;20416;-61
2021/03/24 11:25:28;;;;;;;44.83;34.33;;;14.30;69.60;;;;;;5006650;28;20767;-61
2021/03/24 11:27:58;;;;;;;46.53;35.63;;;15.40;69.00;;;;;;5006563;28;20332;-62
2021/03/24 11:30:29;;;;;;;45.30;36.23;;;14.30;68.80;;;;;;5006302;28;20252;-62
2021/03/24 11:33:22;;;;;;;46.77;38.23;;;14.40;66.60;;;;;;5006584;28;20226;-62
2021/03/24 11:35:59;;;;;;;47.80;36.40;;;14.60;67.50;;;;;;4991327;28;20270;-62
2021/03/24 11:38:36;;;;;;;46.97;37.30;;;14.80;66.80;;;;;;5006141;28;20222;-62
2021/03/24 11:41:07;;;;;;;48.33;36.63;;;14.80;66.10;;;;;;5005627;28;20671;-62
2021/03/24 11:43:38;;;;;;;50.73;36.83;;;15.00;65.70;;;;;;5006397;28;20437;-62
2021/03/24 11:46:11;;;;;;;46.47;35.83;;;15.30;65.70;;;;;;5005136;28;20226;-61
2021/03/24 11:48:55;;;;;;;49.78;36.42;;;15.70;64.30;;;;;;5005870;28;20218;-61
2021/03/24 11:51:33;;;;;;;43.70;34.85;;;15.80;63.80;;;;;;5005851;28;20985;-62
2021/03/24 11:54:11;;;;;;;44.83;36.08;;;16.20;63.70;;;;;;5005424;28;20723;-63
2021/03/24 11:57:02;;;;;;;45.90;37.08;;;16.70;60.80;;;;;;5005924;28;20307;-62
2021/03/24 11:59:38;;;;;;;46.63;38.15;;;16.70;58.50;;;;;;5005887;28;20641;-61
2021/03/24 12:02:13;;;;;;;50.85;38.15;;;17.20;57.20;;;;;;5005429;28;20288;-61
2021/03/24 12:04:59;;;;;;;49.30;38.78;;;17.30;55.90;;;;;;5005743;28;20938;-61
2021/03/24 12:07:52;;;;;;;46.85;37.30;;;17.30;55.20;;;;;;5005649;28;20575;-62
2021/03/24 12:10:36;;;;;;;43.90;35.97;;;17.00;55.70;;;;;;5006167;28;20440;-61
2021/03/24 12:13:14;;;;;;;48.22;37.92;;;17.30;54.30;;;;;;5005262;28;20792;-62
2021/03/24 12:15:42;;;;;;;45.65;37.40;;;17.40;53.40;;;;;;5004882;28;20374;-62
2021/03/24 12:18:12;;;;;;;44.75;36.90;;;17.50;53.30;;;;;;5006124;28;20218;-61
2021/03/24 12:20:55;;;;;;;45.45;36.95;;;17.50;53.50;;;;;;5005550;28;20219;-62
2021/03/24 12:23:26;;;;;;;45.53;38.47;;;17.80;52.60;;;;;;5005536;28;20632;-62
2021/03/24 12:25:54;;;;;;;46.92;38.42;;;17.80;52.70;;;;;;5003328;28;20249;-61
2021/03/24 12:28:28;;;;;;;44.65;37.83;;;17.80;52.40;;;;;;5001728;28;20718;-62
2021/03/24 12:31:04;;;;;;;42.08;36.47;;;17.60;52.10;;;;;;5005231;28;20230;-62
2021/03/24 12:33:33;;;;;;;46.22;35.83;;;16.50;51.90;;;;;;5001571;28;20390;-62
2021/03/24 12:36:09;;;;;;;43.45;35.20;;;17.40;52.60;;;;;;5006449;28;20315;-62
2021/03/24 12:38:49;;;;;;;41.75;35.35;;;17.20;51.70;;;;;;5004903;28;20940;-61
2021/03/24 12:41:28;;;;;;;40.70;33.70;;;17.00;52.80;;;;;;5005642;28;20266;-62
2021/03/24 12:44:16;;;;;;;51.72;36.50;;;17.10;51.50;;;;;;5005472;28;21040;-62
2021/03/24 12:46:51;;;;;;;47.65;37.63;;;17.10;51.80;;;;;;5005208;28;20234;-62
2021/03/24 12:49:20;;;;;;;49.35;38.75;;;17.00;51.80;;;;;;5005080;28;20943;-61
2021/03/24 12:51:53;;;;;;;49.33;36.55;;;16.80;53.30;;;;;;5004776;28;20253;-61
2021/03/24 12:54:22;;;;;;;46.90;38.15;;;16.60;53.30;;;;;;5005525;28;20981;-62
2021/03/24 12:57:18;;;;;;;48.47;36.65;;;16.30;53.80;;;;;;5002327;28;20264;-61
2021/03/24 13:00:02;;;;;;;45.28;36.88;;;16.40;53.70;;;;;;5005127;28;21488;-61
2021/03/24 13:02:59;;;;;;;46.17;37.80;;;16.30;54.90;;;;;;5004673;28;20339;-61
2021/03/24 13:05:36;;;;;;;47.95;36.33;;;16.20;53.70;;;;;;4993505;28;20230;-61
2021/03/24 13:08:12;;;;;;;45.70;36.20;;;17.10;55.80;;;;;;5005368;28;20546;-61
2021/03/24 13:10:47;;;;;;;46.83;36.05;;;16.40;55.30;;;;;;5004773;28;20420;-60
2021/03/24 13:13:23;;;;;;;49.42;38.78;;;16.30;54.50;;;;;;5005170;28;20982;-61
2021/03/24 13:15:53;;;;;;;45.20;35.33;;;16.30;55.00;;;;;;5003705;28;21031;-62
2021/03/24 13:18:26;;;;;;;45.17;37.10;;;16.30;55.00;;;;;;4985086;28;20952;-59